Adairo, Ohio
Current Conditions -  °F | °C
As of 3:04 PM on Monday 24 Nov 2014 (Local Time) from KMFD Reporting Station
Overcast Overcast  
Wind Chill:   Ceiling: 2300
Heat Index:   Visibility: 10mi
Dew Point:   Wind: 24mph
Humidity: 74%   Direction: 220°SW
Pressure: 29.5"   Gusts: 38mph
Location:  40.9484°N, 82.5121°W
Report Text: KMFD 242004Z 22021G33KT 10SM BKN023 OVC030 08/04 A2950 RMK AO2 PK WND 21033/2002 T00830039
Loading
Personal Weather Stations






























Interactive Weather Map New forecast layout! Learn more

10-Day Weather Forecast

Advertisements
Track Severe Weather on mobile